Time;durP1;ratioP1;P1;durP2;ratioP2;P2;SDS_P1;SDS_P2;PMS_P1;PMS_P2;Temp;Humidity;BMP_temperature;BMP_pressure;BME280_temperature;BME280_humidity;BME280_pressure;Samples;Min_cycle;Max_cycle;Signal;HPM_P1;HPM_P2
2022/01/17 00:01:17;;;;;;;78.70;31.85;;;;;;;-4.50;100.00;99621.48;1700550;84;21028;-74
2022/01/17 00:03:43;;;;;;;71.87;30.10;;;;;;;-4.49;100.00;99620.62;1683286;84;21555;-73
2022/01/17 00:06:10;;;;;;;81.40;31.90;;;;;;;-4.49;100.00;99619.77;1700660;84;21088;-72
2022/01/17 00:08:41;;;;;;;73.00;31.70;;;;;;;-4.50;100.00;99612.48;1700568;84;21356;-72
2022/01/17 00:11:08;;;;;;;69.80;27.55;;;;;;;-4.52;100.00;99596.16;1700422;84;21055;-72
2022/01/17 00:13:35;;;;;;;78.03;31.87;;;;;;;-4.50;100.00;99594.48;1700519;84;21083;-73
2022/01/17 00:16:29;;;;;;;108.90;38.10;;;;;;;-4.49;100.00;99598.77;1700656;84;21149;-73
2022/01/17 00:21:17;;;;;;;156.03;54.07;;;;;;;-4.45;100.00;99599.27;1700297;84;21227;-72
2022/01/17 00:23:43;;;;;;;150.42;52.75;;;;;;;-4.43;100.00;99582.59;1700176;84;21046;-73
2022/01/17 00:26:10;;;;;;;148.38;54.25;;;;;;;-4.39;100.00;99579.63;1700263;84;21489;-72
2022/01/17 00:28:37;;;;;;;175.00;59.37;;;;;;;-4.34;100.00;99577.59;1700130;84;21077;-75
2022/01/17 00:31:05;;;;;;;76.67;30.93;;;;;;;-4.32;100.00;99567.34;1700300;84;21076;-73
2022/01/17 00:33:33;;;;;;;96.37;38.77;;;;;;;-4.27;100.00;99566.97;1700297;84;21224;-74
2022/01/17 00:35:59;;;;;;;89.10;35.80;;;;;;;-4.25;100.00;99562.72;1700575;84;21084;-72
2022/01/17 00:38:26;;;;;;;116.67;45.80;;;;;;;-4.22;100.00;99563.60;1700228;82;21079;-73
2022/01/17 00:40:53;;;;;;;89.15;36.98;;;;;;;-4.17;100.00;99571.38;1700137;84;21055;-72
2022/01/17 00:43:19;;;;;;;65.92;29.20;;;;;;;-4.14;100.00;99561.16;1702989;83;21099;-72
2022/01/17 00:45:46;;;;;;;60.95;25.90;;;;;;;-4.12;100.00;99554.30;1701104;84;21113;-72
2022/01/17 00:48:12;;;;;;;68.07;28.70;;;;;;;-4.09;100.00;99544.06;1700472;84;21017;-71
2022/01/17 00:50:40;;;;;;;58.97;25.47;;;;;;;-4.04;100.00;99537.27;1700550;84;21600;-71
2022/01/17 00:53:08;;;;;;;49.25;21.75;;;;;;;-4.13;100.00;99511.44;1700815;84;21064;-72
2022/01/17 00:55:36;;;;;;;68.70;26.35;;;;;;;-3.96;100.00;99526.20;1700984;84;21092;-72
2022/01/17 00:58:04;;;;;;;100.55;37.08;;;;;;;-3.93;100.00;99531.41;1700709;84;21111;-72
2022/01/17 01:00:31;;;;;;;92.82;36.20;;;;;;;-3.88;100.00;99528.02;1695112;84;21048;-72
2022/01/17 01:02:58;;;;;;;105.35;35.28;;;;;;;-3.85;100.00;99523.33;1672198;85;21103;-73
2022/01/17 01:05:24;;;;;;;71.12;25.48;;;;;;;-3.82;100.00;99522.07;1672232;85;21064;-73
2022/01/17 01:07:51;;;;;;;91.65;36.30;;;;;;;-3.78;100.00;99517.84;1672294;85;21060;-73
2022/01/17 01:10:19;;;;;;;100.35;36.25;;;;;;;-3.74;100.00;99512.74;1672172;84;21923;-71
2022/01/17 01:12:47;;;;;;;76.10;31.68;;;;;;;-3.73;100.00;99500.30;1672308;85;21076;-73
2022/01/17 01:15:20;;;;;;;100.40;32.45;;;;;;;-3.66;100.00;99511.13;1672290;85;21326;-71
2022/01/17 01:17:51;;;;;;;83.20;28.75;;;;;;;-3.68;100.00;99496.48;1683129;83;21636;-72
2022/01/17 01:28:17;;;;;;;48.68;20.15;;;;;;;-3.48;100.00;99491.55;1700877;84;21080;-72
2022/01/17 01:30:48;;;;;;;56.40;24.07;;;;;;;-3.44;100.00;99479.14;1700454;84;21060;-74
2022/01/17 01:33:18;;;;;;;79.17;30.55;;;;;;;-3.39;100.00;99477.03;1700224;84;21120;-73
2022/01/17 01:35:46;;;;;;;104.07;38.00;;;;;;;-3.35;100.00;99476.65;1695282;84;21741;-73
2022/01/17 01:38:09;;;;;;;79.77;29.37;;;;;;;-3.28;100.00;99474.99;1671404;84;21099;-72
2022/01/17 01:40:36;;;;;;;89.05;32.15;;;;;;;-3.23;100.00;99474.59;1672154;84;21072;-73
2022/01/17 01:43:02;;;;;;;65.50;25.57;;;;;;;-3.18;100.00;99472.48;1672227;85;21072;-72
2022/01/17 01:45:29;;;;;;;63.15;24.82;;;;;;;-3.13;100.00;99460.07;1672411;85;21060;-72
2022/01/17 01:47:55;;;;;;;88.00;31.52;;;;;;;-3.08;100.00;99451.55;1672109;85;21172;-74
2022/01/17 01:50:22;;;;;;;74.50;30.35;;;;;;;-3.02;100.00;99455.86;1672305;84;21100;-72
2022/01/17 01:52:50;;;;;;;62.13;24.90;;;;;;;-3.00;100.00;99455.45;1672408;85;21095;-73
2022/01/17 01:55:20;;;;;;;66.97;26.05;;;;;;;-2.97;100.00;99447.33;1672522;85;21556;-73
2022/01/17 01:57:46;;;;;;;55.75;22.82;;;;;;;-2.95;100.00;99440.88;1672386;85;21057;-73
2022/01/17 02:00:14;;;;;;;61.15;23.83;;;;;;;-2.94;100.00;99431.03;1672649;84;21065;-72
2022/01/17 02:02:41;;;;;;;45.95;19.35;;;;;;;-2.93;100.00;99425.01;1672283;85;21155;-74
2022/01/17 02:05:09;;;;;;;58.85;22.60;;;;;;;-2.96;100.00;99415.98;1672376;85;21575;-73
2022/01/17 02:07:36;;;;;;;43.35;18.30;;;;;;;-2.96;100.00;99414.69;1672394;85;21135;-73
2022/01/17 02:10:04;;;;;;;52.65;20.40;;;;;;;-2.96;100.00;99415.98;1672638;85;21064;-75
2022/01/17 02:12:31;;;;;;;43.52;20.10;;;;;;;-2.97;100.00;99407.80;1672485;85;21142;-73
2022/01/17 02:14:57;;;;;;;52.27;21.50;;;;;;;-3.00;100.00;99394.91;1643478;85;21087;-73
2022/01/17 02:17:25;;;;;;;56.98;23.47;;;;;;;-3.01;100.00;99380.32;1672364;85;21087;-71
2022/01/17 02:20:04;;;;;;;74.37;26.35;;;;;;;-3.00;100.00;99374.30;1680228;84;21576;-72
2022/01/17 02:22:24;;;;;;;79.80;29.12;;;;;;;-3.02;100.00;99350.24;1697497;84;21084;-72
2022/01/17 02:24:50;;;;;;;68.45;27.75;;;;;;;-3.01;100.00;99354.56;1686576;85;21655;-72
2022/01/17 02:27:17;;;;;;;80.30;30.10;;;;;;;-3.02;100.00;99347.67;1685985;85;21092;-72
2022/01/17 02:29:44;;;;;;;79.35;31.95;;;;;;;-3.02;100.00;99342.52;1686103;85;21062;-74
2022/01/17 02:32:10;;;;;;;89.17;36.48;;;;;;;-3.01;100.00;99323.65;1686263;85;21486;-72
2022/01/17 02:34:42;;;;;;;63.90;24.70;;;;;;;-3.01;100.00;99303.89;1686286;85;21089;-71
2022/01/17 02:37:10;;;;;;;76.70;30.77;;;;;;;-3.02;100.00;99301.30;1686229;85;21112;-72
2022/01/17 02:39:39;;;;;;;54.65;23.98;;;;;;;-3.05;100.00;99281.98;1685872;83;21061;-72
2022/01/17 02:42:05;;;;;;;59.67;24.92;;;;;;;-3.05;100.00;99260.08;1686286;85;21120;-74
2022/01/17 02:44:32;;;;;;;57.30;24.02;;;;;;;-3.08;100.00;99269.06;1686261;85;21120;-71
2022/01/17 02:47:02;;;;;;;55.90;22.85;;;;;;;-3.08;100.00;99280.66;1686108;85;21099;-72
2022/01/17 02:49:28;;;;;;;55.38;22.05;;;;;;;-3.08;100.00;99284.52;1685880;85;21141;-71
2022/01/17 02:51:55;;;;;;;65.70;27.10;;;;;;;-3.09;100.00;99267.36;1690054;84;21129;-72
2022/01/17 02:54:22;;;;;;;59.53;25.90;;;;;;;-3.07;100.00;99280.67;1691173;84;21118;-72
2022/01/17 02:56:49;;;;;;;61.02;21.70;;;;;;;-3.05;100.00;99279.41;1691322;84;21189;-73
2022/01/17 02:59:15;;;;;;;60.25;25.17;;;;;;;-3.06;100.00;99258.34;1691307;84;21057;-75
2022/01/17 03:01:44;;;;;;;82.82;33.30;;;;;;;-3.06;100.00;99237.73;1691550;84;21112;-74
2022/01/17 03:04:10;;;;;;;62.58;26.10;;;;;;;-3.03;100.00;99268.68;1691011;84;21529;-74
2022/01/17 03:06:36;;;;;;;83.42;32.50;;;;;;;-3.00;100.00;99254.52;1691306;84;21089;-74
2022/01/17 03:09:03;;;;;;;70.30;28.45;;;;;;;-2.99;100.00;99260.08;1691213;84;21106;-76
2022/01/17 03:11:29;;;;;;;70.28;28.67;;;;;;;-2.94;100.00;99259.70;1691069;84;21088;-74
2022/01/17 03:13:56;;;;;;;64.12;25.60;;;;;;;-2.91;100.00;99242.95;1691153;84;21518;-73
2022/01/17 03:16:32;;;;;;;66.67;29.23;;;;;;;-2.90;100.00;99222.75;1691666;84;21143;-71
2022/01/17 03:18:57;;;;;;;64.15;25.97;;;;;;;-2.87;100.00;99220.64;1690071;84;21636;-72
2022/01/17 03:21:27;;;;;;;59.90;25.62;;;;;;;-2.85;100.00;99201.75;1696096;84;21111;-72
2022/01/17 03:23:53;;;;;;;55.03;23.85;;;;;;;-2.83;100.00;99196.17;1696314;84;21595;-72
2022/01/17 03:26:20;;;;;;;54.05;21.52;;;;;;;-2.81;100.00;99197.01;1696690;84;21153;-72
2022/01/17 03:28:46;;;;;;;51.90;20.70;;;;;;;-2.78;100.00;99197.47;1696678;84;21092;-73
2022/01/17 03:31:12;;;;;;;56.35;24.27;;;;;;;-2.77;100.00;99192.73;1696379;84;21084;-72
2022/01/17 03:33:39;;;;;;;54.03;22.75;;;;;;;-2.72;100.00;99188.88;1690171;84;21127;-72
2022/01/17 03:36:06;;;;;;;51.30;22.52;;;;;;;-2.71;100.00;99171.25;1691372;84;21065;-71
2022/01/17 03:38:34;;;;;;;59.27;22.60;;;;;;;-2.71;100.00;99164.81;1691542;83;21052;-72
2022/01/17 03:41:02;;;;;;;54.30;23.95;;;;;;;-2.69;100.00;99170.83;1691349;84;21038;-71
2022/01/17 03:43:28;;;;;;;63.28;25.52;;;;;;;-2.67;100.00;99163.96;1691405;84;21056;-72
2022/01/17 03:45:57;;;;;;;58.65;25.02;;;;;;;-2.65;100.00;99155.80;1691212;84;21068;-71
2022/01/17 03:48:24;;;;;;;58.28;24.43;;;;;;;-2.63;100.00;99151.08;1691345;84;21532;-72
2022/01/17 03:50:51;;;;;;;65.00;25.48;;;;;;;-2.59;100.00;99148.09;1690240;84;21645;-71
2022/01/17 03:53:18;;;;;;;59.63;24.55;;;;;;;-2.56;100.00;99139.05;1685895;85;21608;-72
2022/01/17 03:55:44;;;;;;;66.62;25.75;;;;;;;-2.54;100.00;99133.03;1686320;85;21073;-72
2022/01/17 03:58:11;;;;;;;59.80;24.87;;;;;;;-2.50;100.00;99127.46;1686165;85;21105;-71
2022/01/17 04:00:44;;;;;;;66.57;27.45;;;;;;;-2.47;100.00;99121.00;1686289;85;21112;-72
2022/01/17 04:03:10;;;;;;;66.67;26.73;;;;;;;-2.43;100.00;99120.14;1686376;84;21127;-70
2022/01/17 04:05:37;;;;;;;54.67;25.10;;;;;;;-2.38;100.00;99114.55;1700660;84;21303;-72
2022/01/17 04:08:05;;;;;;;63.83;23.75;;;;;;;-2.36;100.00;99108.96;1700326;84;21418;-72
2022/01/17 04:10:32;;;;;;;61.20;25.17;;;;;;;-2.31;100.00;99112.83;1700849;84;21085;-72
2022/01/17 04:13:03;;;;;;;54.95;22.52;;;;;;;-2.26;100.00;99111.53;1700724;84;21660;-72
2022/01/17 04:15:33;;;;;;;55.67;22.52;;;;;;;-2.22;100.00;99104.22;1700812;84;21044;-72
2022/01/17 04:18:00;;;;;;;60.50;23.00;;;;;;;-2.17;100.00;99094.74;1700755;84;21112;-71
2022/01/17 04:20:29;;;;;;;48.45;21.65;;;;;;;-2.13;100.00;99086.14;1692069;84;21101;-72
2022/01/17 04:22:59;;;;;;;59.93;21.65;;;;;;;-2.09;100.00;99094.31;1685199;85;21073;-72
2022/01/17 04:25:29;;;;;;;49.37;17.27;;;;;;;-2.05;100.00;99090.83;1685913;85;21045;-71
2022/01/17 04:27:57;;;;;;;49.73;18.73;;;;;;;-2.02;100.00;99090.84;1685467;85;21136;-71
2022/01/17 04:30:23;;;;;;;47.48;19.10;;;;;;;-2.00;100.00;99076.22;1685279;85;21069;-71
2022/01/17 04:32:50;;;;;;;50.75;20.30;;;;;;;-1.96;100.00;99073.19;1685315;85;21089;-71
2022/01/17 04:35:21;;;;;;;49.53;19.30;;;;;;;-1.90;100.00;99068.01;1685360;85;21034;-70
2022/01/17 04:37:52;;;;;;;49.53;20.15;;;;;;;-1.82;100.00;99066.68;1700803;82;21614;-73
2022/01/17 04:40:19;;;;;;;53.05;19.00;;;;;;;-1.78;100.00;99061.94;1708800;81;21347;-73
2022/01/17 04:42:48;;;;;;;48.78;19.35;;;;;;;-1.71;100.00;99064.91;1709618;82;21136;-72
2022/01/17 04:45:18;;;;;;;53.15;20.75;;;;;;;-1.68;100.00;99062.30;1714331;82;21084;-68
2022/01/17 04:47:48;;;;;;;49.10;18.77;;;;;;;-1.61;100.00;99060.55;1729036;82;21033;-70
2022/01/17 04:50:19;;;;;;;36.33;15.68;;;;;;;-1.56;100.00;99072.59;1729673;82;21064;-67
2022/01/17 04:52:47;;;;;;;44.77;16.17;;;;;;;-1.49;100.00;99069.55;1708492;82;21921;-69
2022/01/17 04:55:14;;;;;;;40.83;16.30;;;;;;;-1.44;100.00;99053.59;1705658;84;21079;-69
2022/01/17 04:57:43;;;;;;;40.75;16.17;;;;;;;-1.40;100.00;99051.83;1705592;84;21068;-68
2022/01/17 05:00:12;;;;;;;45.15;16.35;;;;;;;-1.42;100.00;99048.43;1693271;84;21055;-67
2022/01/17 05:02:40;;;;;;;36.28;14.70;;;;;;;-1.45;100.00;99045.84;1693778;84;21066;-66
2022/01/17 05:05:09;;;;;;;35.17;14.58;;;;;;;-1.49;100.00;99036.83;1684999;84;21163;-66
2022/01/17 05:07:35;;;;;;;46.73;16.62;;;;;;;-1.52;100.00;99025.24;1690738;84;21186;-65
2022/01/17 05:10:06;;;;;;;33.58;15.13;;;;;;;-1.57;100.00;99008.89;1688154;84;21151;-66
2022/01/17 05:12:33;;;;;;;42.80;17.55;;;;;;;-1.62;100.00;99006.78;1696274;84;21594;-67
2022/01/17 05:15:00;;;;;;;34.73;16.10;;;;;;;-1.66;100.00;99000.35;1683414;84;21099;-65
2022/01/17 05:19:58;;;;;;;40.23;17.77;;;;;;;-1.67;100.00;98999.50;1695857;84;21054;-66
2022/01/17 05:22:30;;;;;;;41.90;15.80;;;;;;;-1.69;100.00;98997.36;1677159;85;21046;-65
2022/01/17 05:24:56;;;;;;;36.95;16.12;;;;;;;-1.68;100.00;98984.86;1690469;84;21147;-65
2022/01/17 05:27:22;;;;;;;42.73;17.85;;;;;;;-1.70;100.00;98973.72;1694380;84;21143;-67
2022/01/17 05:29:49;;;;;;;41.55;16.90;;;;;;;-1.71;100.00;98964.24;1694135;84;21044;-64
2022/01/17 05:32:16;;;;;;;45.65;15.90;;;;;;;-1.71;100.00;98965.53;1693931;84;21109;-66
2022/01/17 05:34:43;;;;;;;36.42;17.23;;;;;;;-1.76;100.00;98969.88;1684702;84;21147;-66
2022/01/17 05:37:13;;;;;;;39.38;17.00;;;;;;;-1.76;100.00;98975.88;1684906;84;21151;-68
2022/01/17 05:39:39;;;;;;;36.70;16.15;;;;;;;-1.74;100.00;98968.14;1687475;83;21088;-66
2022/01/17 05:42:07;;;;;;;42.48;17.92;;;;;;;-1.74;100.00;98970.28;1677731;84;21427;-67
2022/01/17 05:48:05;;;;;;;36.63;16.80;;;;;;;-1.64;100.00;98953.00;1791114;79;22607;-67
2022/01/17 05:50:31;;;;;;;44.50;16.85;;;;;;;-1.67;100.00;98954.77;1755453;81;21573;-65
2022/01/17 05:52:58;;;;;;;44.23;17.97;;;;;;;-1.63;100.00;98957.31;1755606;81;21061;-65
2022/01/17 05:55:24;;;;;;;61.63;24.32;;;;;;;-1.59;100.00;98942.20;1755420;81;21046;-65
2022/01/17 05:57:51;;;;;;;40.03;16.52;;;;;;;-1.59;100.00;98940.91;1755927;81;21041;-65
2022/01/17 06:00:18;;;;;;;46.80;18.87;;;;;;;-1.54;100.00;98940.47;1755543;80;21077;-66
2022/01/17 06:02:48;;;;;;;51.70;22.35;;;;;;;-1.52;100.00;98933.58;1733088;80;21500;-65
2022/01/17 06:05:14;;;;;;;44.95;18.12;;;;;;;-1.48;100.00;98937.83;1746426;81;21138;-68
2022/01/17 06:07:41;;;;;;;53.55;22.00;;;;;;;-1.45;100.00;98932.22;1753704;81;21549;-65
2022/01/17 06:10:08;;;;;;;50.43;20.25;;;;;;;-1.41;100.00;98917.13;1755344;81;21116;-66
2022/01/17 06:12:35;;;;;;;47.03;20.85;;;;;;;-1.38;100.00;98906.77;1751819;80;21424;-66
2022/01/17 06:15:05;;;;;;;45.98;18.95;;;;;;;-1.35;100.00;98900.30;1745615;80;21081;-65
2022/01/17 06:17:32;;;;;;;;;;;;;;;-1.34;100.00;98906.72;1745033;80;21104;-67
2022/01/17 06:19:58;;;;;;;56.60;23.85;;;;;;;-1.31;100.00;98900.26;1733394;80;20233;-66
2022/01/17 06:22:26;;;;;;;42.53;17.90;;;;;;;-1.28;100.00;98895.05;1734239;80;21048;-67
2022/01/17 06:24:54;;;;;;;111.00;40.43;;;;;;;-1.23;100.00;98900.62;1741056;80;21053;-65
2022/01/17 06:27:20;;;;;;;74.82;29.50;;;;;;;-1.22;100.00;98889.00;1731123;80;21080;-67
2022/01/17 06:29:46;;;;;;;143.95;49.13;;;;;;;-1.19;100.00;98877.33;1731807;80;21108;-67
2022/01/17 06:32:13;;;;;;;116.40;41.88;;;;;;;-1.14;100.00;98869.09;1733404;80;21085;-67
2022/01/17 06:34:40;;;;;;;133.63;46.05;;;;;;;-1.12;100.00;98873.81;1731834;80;21064;-68
2022/01/17 06:37:06;;;;;;;101.15;36.23;;;;;;;-1.09;100.00;98862.14;1722433;80;21216;-66
2022/01/17 06:39:33;;;;;;;158.20;55.85;;;;;;;-1.03;100.00;98858.66;1699471;81;21579;-68
2022/01/17 06:42:00;;;;;;;84.28;33.67;;;;;;;-1.00;100.00;98847.43;1693024;82;21680;-68
2022/01/17 06:44:26;;;;;;;53.02;22.58;;;;;;;-0.97;100.00;98830.14;1691162;82;21516;-69
2022/01/17 06:46:53;;;;;;;96.70;37.88;;;;;;;-0.96;100.00;98818.10;1692589;82;22076;-69
2022/01/17 06:49:19;;;;;;;68.20;28.65;;;;;;;-0.95;100.00;98805.59;1700303;82;21688;-67
2022/01/17 06:51:46;;;;;;;80.90;34.58;;;;;;;-0.89;100.00;98799.06;1706585;82;21600;-70
2022/01/17 06:54:12;;;;;;;55.03;21.90;;;;;;;-0.86;100.00;98788.67;1724956;83;21539;-69
2022/01/17 06:56:43;;;;;;;58.95;24.37;;;;;;;-0.82;100.00;98780.45;1723879;82;21084;-69
2022/01/17 06:59:08;;;;;;;49.33;22.07;;;;;;;-0.79;100.00;98773.50;1722554;82;21069;-69
2022/01/17 07:01:38;;;;;;;70.40;28.38;;;;;;;-0.76;100.00;98781.23;1710350;82;21693;-67
2022/01/17 07:04:03;;;;;;;44.67;20.55;;;;;;;-0.72;100.00;98819.08;1721681;83;21062;-67
2022/01/17 07:06:30;;;;;;;50.78;21.97;;;;;;;-0.69;100.00;98841.04;1724393;83;21130;-68
2022/01/17 07:08:56;;;;;;;66.35;27.67;;;;;;;-0.65;100.00;98854.33;1719754;83;21009;-67
2022/01/17 07:11:23;;;;;;;95.32;33.98;;;;;;;-0.59;100.00;98864.20;1711769;83;21084;-68
2022/01/17 07:13:49;;;;;;;83.87;33.08;;;;;;;-0.59;100.00;98868.92;1721486;83;21080;-68
2022/01/17 07:16:16;;;;;;;113.92;43.23;;;;;;;-0.54;100.00;98846.89;1722697;82;21142;-69
2022/01/17 07:18:42;;;;;;;168.55;56.70;;;;;;;-0.50;100.00;98841.66;1708376;83;21066;-68
2022/01/17 07:21:09;;;;;;;133.50;48.13;;;;;;;-0.49;100.00;98823.95;1711947;83;21080;-68
2022/01/17 07:23:36;;;;;;;189.13;65.67;;;;;;;-0.45;100.00;98800.21;1712341;83;21080;-69
2022/01/17 07:26:03;;;;;;;180.82;63.33;;;;;;;-0.44;100.00;98765.70;1724407;83;21053;-70
2022/01/17 07:28:30;;;;;;;178.05;63.85;;;;;;;-0.43;100.00;98745.00;1722264;82;21037;-68
2022/01/17 07:30:56;;;;;;;163.68;60.85;;;;;;;-0.35;100.00;98719.00;1696159;83;21579;-67
2022/01/17 07:33:26;;;;;;;168.25;59.18;;;;;;;-0.31;100.00;98689.63;1696218;84;21065;-68
2022/01/17 07:35:51;;;;;;;91.20;35.00;;;;;;;-0.30;100.00;98709.88;1723338;83;21049;-68
2022/01/17 07:38:17;;;;;;;76.65;30.15;;;;;;;-0.33;100.00;98717.25;1724565;81;21045;-69
2022/01/17 07:40:44;;;;;;;75.40;29.40;;;;;;;-0.31;100.00;98709.03;1715165;83;21591;-68
2022/01/17 07:43:11;;;;;;;78.45;30.48;;;;;;;-0.32;100.00;98718.98;1725214;83;21658;-68
2022/01/17 07:45:46;;;;;;;55.85;24.37;;;;;;;-0.28;100.00;98727.08;1723328;83;21094;-68
2022/01/17 07:48:12;;;;;;;50.05;22.32;;;;;;;-0.26;100.00;98705.92;1697173;83;21046;-68
2022/01/17 07:50:36;;;;;;;55.92;22.17;;;;;;;-0.22;100.00;98723.11;1707887;83;21065;-68
2022/01/17 07:53:03;;;;;;;60.17;27.02;;;;;;;-0.16;100.00;98757.52;1710779;82;21057;-72
2022/01/17 07:55:29;;;;;;;54.20;23.92;;;;;;;-0.09;100.00;98764.30;1709632;83;21147;-68
2022/01/17 07:57:56;;;;;;;50.08;22.10;;;;;;;-0.06;100.00;98743.58;1710356;82;21053;-67
2022/01/17 08:00:25;;;;;;;106.92;40.38;;;;;;;0.00;100.00;98748.66;1698086;83;21081;-65
2022/01/17 08:02:53;;;;;;;156.30;54.48;;;;;;;0.03;100.00;98717.54;1708848;82;21034;-67
2022/01/17 08:05:20;;;;;;;124.45;44.60;;;;;;;0.06;100.00;98689.00;1710625;83;21098;-65
2022/01/17 08:07:48;;;;;;;84.10;33.15;;;;;;;0.11;100.00;98687.17;1710354;83;21132;-70
2022/01/17 08:10:15;;;;;;;97.60;35.03;;;;;;;0.15;100.00;98669.42;1703939;83;21090;-64
2022/01/17 08:12:43;;;;;;;127.12;46.63;;;;;;;0.16;100.00;98663.38;1708924;82;21085;-65
2022/01/17 08:15:12;;;;;;;126.10;46.33;;;;;;;0.16;100.00;98671.15;1702855;83;21648;-64
2022/01/17 08:17:40;;;;;;;62.60;24.45;;;;;;;0.17;100.00;98661.19;1708935;83;21934;-66
2022/01/17 08:20:08;;;;;;;115.15;44.20;;;;;;;0.16;100.00;98633.61;1689100;82;21192;-65
2022/01/17 08:22:34;;;;;;;81.95;32.83;;;;;;;0.18;100.00;98618.91;1675212;83;21676;-66
2022/01/17 08:25:06;;;;;;;61.85;26.42;;;;;;;0.22;100.00;98634.37;1702593;83;21074;-65
2022/01/17 08:27:32;;;;;;;71.95;29.05;;;;;;;0.24;100.00;98619.66;1709038;83;21083;-66
2022/01/17 08:30:00;;;;;;;52.43;24.05;;;;;;;0.26;100.00;98621.78;1706309;83;21540;-65
2022/01/17 08:32:29;;;;;;;55.48;25.45;;;;;;;0.28;100.00;98636.40;1708490;83;21164;-65
2022/01/17 08:34:57;;;;;;;47.35;19.10;;;;;;;0.29;100.00;98634.66;1712317;83;21368;-65
2022/01/17 08:37:25;;;;;;;47.05;20.70;;;;;;;0.29;100.00;98612.65;1712230;82;21569;-65
2022/01/17 08:39:53;;;;;;;42.78;19.52;;;;;;;0.28;100.00;98591.53;1711994;82;21210;-67
2022/01/17 08:42:19;;;;;;;59.55;25.65;;;;;;;0.26;100.00;98606.25;1704271;83;21097;-66
2022/01/17 08:44:49;;;;;;;51.65;23.38;;;;;;;0.25;100.00;98598.89;1711850;83;21506;-65
2022/01/17 08:47:14;;;;;;;145.15;43.42;;;;;;;0.26;100.00;98594.59;1711624;82;21669;-65
2022/01/17 08:49:41;;;;;;;163.80;57.60;;;;;;;0.26;100.00;98610.12;1702918;83;21610;-66
2022/01/17 08:52:08;;;;;;;128.07;46.50;;;;;;;0.28;100.00;98591.09;1712148;83;21049;-67
2022/01/17 08:54:34;;;;;;;150.47;57.88;;;;;;;0.33;100.00;98594.88;1712297;82;21045;-67
2022/01/17 08:57:00;;;;;;;130.75;43.70;;;;;;;0.33;100.00;98591.00;1705361;82;21107;-64
2022/01/17 08:59:29;;;;;;;113.70;41.70;;;;;;;0.35;100.00;98597.00;1702814;83;21085;-65
2022/01/17 09:01:56;;;;;;;161.77;53.68;;;;;;;0.37;100.00;98582.28;1689668;83;21069;-65
2022/01/17 09:04:22;;;;;;;201.58;71.75;;;;;;;0.39;100.00;98588.26;1682127;82;21076;-65
2022/01/17 09:06:49;;;;;;;126.92;47.73;;;;;;;0.43;100.00;98596.38;1697779;83;21136;-64
2022/01/17 09:09:16;;;;;;;109.50;41.75;;;;;;;0.46;100.00;98578.63;1707500;83;21164;-64
2022/01/17 09:11:44;;;;;;;84.90;36.63;;;;;;;0.48;100.00;98585.48;1698756;83;21065;-65
2022/01/17 09:14:12;;;;;;;60.17;26.75;;;;;;;0.51;100.00;98579.41;1708602;82;20992;-65
2022/01/17 09:16:39;;;;;;;55.40;24.70;;;;;;;0.52;100.00;98576.77;1706039;83;21054;-67
2022/01/17 09:19:07;;;;;;;55.70;25.00;;;;;;;0.55;100.00;98568.95;1710473;82;21074;-66
2022/01/17 09:21:34;;;;;;;48.35;21.37;;;;;;;0.56;100.00;98556.84;1707870;82;21105;-64
2022/01/17 09:24:01;;;;;;;50.33;22.35;;;;;;;0.58;100.00;98546.85;1710386;83;21030;-66
2022/01/17 09:26:28;;;;;;;48.65;21.90;;;;;;;0.57;100.00;98540.40;1711422;82;21069;-65
2022/01/17 09:28:55;;;;;;;49.53;23.62;;;;;;;0.58;100.00;98532.60;1710631;83;21085;-65
2022/01/17 09:31:21;;;;;;;51.30;23.55;;;;;;;0.61;100.00;98516.98;1710553;83;21069;-64
2022/01/17 09:33:48;;;;;;;44.67;21.27;;;;;;;0.63;100.00;98491.05;1710601;83;21076;-65
2022/01/17 09:36:14;;;;;;;45.17;18.48;;;;;;;0.66;100.00;98485.78;1710466;82;21754;-66
2022/01/17 09:38:41;;;;;;;42.03;17.23;;;;;;;0.65;100.00;98488.44;1710538;82;21046;-65
2022/01/17 09:41:09;;;;;;;51.63;22.80;;;;;;;0.67;100.00;98484.04;1710401;83;21097;-63
2022/01/17 09:43:36;;;;;;;59.00;25.35;;;;;;;0.69;100.00;98472.78;1711558;83;21102;-64
2022/01/17 09:46:03;;;;;;;47.08;21.02;;;;;;;0.72;100.00;98477.88;1710320;83;21220;-66
2022/01/17 09:48:38;;;;;;;49.27;23.10;;;;;;;0.74;100.00;98472.67;1715301;83;21062;-65
2022/01/17 09:53:53;;;;;;;49.38;23.00;;;;;;;0.75;100.00;98457.52;1655653;83;21071;-66
2022/01/17 09:56:23;;;;;;;31.05;14.13;;;;;;;0.80;100.00;98456.95;1718278;83;21602;-65
2022/01/17 09:58:48;;;;;;;43.35;18.75;;;;;;;0.78;100.00;98448.36;1717984;83;21863;-66
2022/01/17 10:01:14;;;;;;;45.58;20.02;;;;;;;0.77;100.00;98449.27;1689458;83;21605;-65
2022/01/17 10:03:41;;;;;;;50.48;21.25;;;;;;;0.74;100.00;98452.78;1719552;83;21519;-65
2022/01/17 10:06:07;;;;;;;51.53;21.10;;;;;;;0.74;100.00;98454.53;1726982;82;21085;-65
2022/01/17 10:08:34;;;;;;;54.73;25.25;;;;;;;0.75;100.00;98456.22;1719918;82;21045;-65
2022/01/17 10:11:02;;;;;;;48.70;22.98;;;;;;;0.77;100.00;98442.34;1719068;82;21085;-66
2022/01/17 10:13:39;;;;;;;51.63;22.93;;;;;;;0.79;100.00;98439.72;1718821;82;21623;-66
2022/01/17 10:16:11;;;;;;;59.25;25.65;;;;;;;0.78;100.00;98435.41;1719147;82;21085;-65
2022/01/17 10:18:50;;;;;;;50.23;23.30;;;;;;;0.79;100.00;98430.65;1712652;82;21624;-65
2022/01/17 10:21:45;;;;;;;45.20;21.00;;;;;;;0.76;100.00;98428.11;1705265;83;21010;-64
2022/01/17 10:24:24;;;;;;;56.77;24.07;;;;;;;0.76;100.00;98424.22;1694576;83;21138;-66
2022/01/17 10:35:33;;;;;;;117.35;45.03;;;;;;;0.77;100.00;98408.66;1715015;83;21025;-65
2022/01/17 10:38:16;;;;;;;36.83;17.17;;;;;;;0.79;100.00;98404.73;1714234;82;21158;-64
2022/01/17 10:40:58;;;;;;;40.08;16.87;;;;;;;0.77;100.00;98395.69;1711282;83;21029;-65
2022/01/17 10:43:34;;;;;;;48.40;23.75;;;;;;;0.74;100.00;98376.80;1712435;83;21030;-64
2022/01/17 10:45:59;;;;;;;64.03;27.70;;;;;;;0.76;100.00;98359.02;1714948;83;21086;-64
2022/01/17 10:48:45;;;;;;;64.75;28.60;;;;;;;0.78;100.00;98347.30;1702884;81;21057;-66
2022/01/17 10:51:13;;;;;;;124.75;46.68;;;;;;;0.79;100.00;98339.50;1696871;82;21799;-65
2022/01/17 10:53:40;;;;;;;80.77;30.72;;;;;;;0.79;100.00;98324.41;1705098;83;21475;-65
2022/01/17 10:56:09;;;;;;;97.53;34.78;;;;;;;0.80;100.00;98323.50;1708490;83;21469;-64
2022/01/17 10:58:39;;;;;;;187.32;65.32;;;;;;;0.80;100.00;98310.55;1701754;83;21082;-65
2022/01/17 11:01:12;;;;;;;121.50;45.08;;;;;;;0.83;100.00;98306.59;1707329;83;21128;-65
2022/01/17 11:03:42;;;;;;;51.88;22.82;;;;;;;0.87;100.00;98290.05;1701488;83;21666;-66
2022/01/17 11:06:12;;;;;;;42.27;18.37;;;;;;;0.92;100.00;98283.02;1703322;82;21070;-66
2022/01/17 11:08:40;;;;;;;41.83;21.12;;;;;;;0.94;100.00;98273.43;1710401;83;21616;-66
2022/01/17 11:11:09;;;;;;;44.10;19.20;;;;;;;0.98;100.00;98276.34;1710181;83;21137;-65
2022/01/17 11:13:39;;;;;;;39.15;18.20;;;;;;;0.99;100.00;98280.66;1709825;83;21158;-66
2022/01/17 11:16:10;;;;;;;33.92;16.05;;;;;;;0.99;100.00;98289.73;1706345;82;21141;-66
2022/01/17 11:18:36;;;;;;;37.35;18.40;;;;;;;1.01;100.00;98284.06;1687000;83;21084;-66
2022/01/17 11:21:13;;;;;;;33.63;16.23;;;;;;;1.01;100.00;98272.39;1705354;83;21096;-66
2022/01/17 11:23:46;;;;;;;41.65;20.72;;;;;;;1.01;100.00;98247.77;1712352;82;21077;-66
2022/01/17 11:26:13;;;;;;;52.38;24.50;;;;;;;1.02;100.00;98274.08;1703633;83;21045;-66
2022/01/17 11:28:40;;;;;;;40.48;18.85;;;;;;;1.03;100.00;98275.77;1691621;83;21147;-66
2022/01/17 11:31:13;;;;;;;84.10;33.90;;;;;;;1.04;100.00;98256.74;1708562;83;21058;-66
2022/01/17 11:33:40;;;;;;;87.75;29.87;;;;;;;1.01;100.00;98245.60;1702435;83;21048;-65
2022/01/17 11:36:07;;;;;;;121.87;48.70;;;;;;;1.03;100.00;98233.45;1710814;82;21119;-64
2022/01/17 11:38:41;;;;;;;40.50;19.12;;;;;;;1.05;100.00;98244.62;1707434;83;21073;-65
2022/01/17 11:41:06;;;;;;;36.45;17.55;;;;;;;1.02;100.00;98231.31;1700123;82;21874;-64
2022/01/17 11:43:37;;;;;;;47.38;21.55;;;;;;;1.02;100.00;98235.20;1698548;83;21065;-65